sensor_id;sensor_type;location;lat;lon;timestamp;P1;durP1;ratioP1;P2;durP2;ratioP2
8413;SDS011;4244;48.684;9.028;2022-09-23T00:00:12;4.03;;;3.70;;
8413;SDS011;4244;48.684;9.028;2022-09-23T00:02:38;4.50;;;4.10;;
8413;SDS011;4244;48.684;9.028;2022-09-23T00:05:05;3.67;;;3.37;;
8413;SDS011;4244;48.684;9.028;2022-09-23T00:07:31;4.80;;;3.20;;
8413;SDS011;4244;48.684;9.028;2022-09-23T00:09:56;3.93;;;3.53;;
8413;SDS011;4244;48.684;9.028;2022-09-23T00:12:22;2.80;;;2.60;;
8413;SDS011;4244;48.684;9.028;2022-09-23T00:14:48;3.73;;;3.43;;
8413;SDS011;4244;48.684;9.028;2022-09-23T00:17:13;3.50;;;3.20;;
8413;SDS011;4244;48.684;9.028;2022-09-23T00:19:39;4.00;;;3.37;;
8413;SDS011;4244;48.684;9.028;2022-09-23T00:22:05;4.03;;;3.40;;
8413;SDS011;4244;48.684;9.028;2022-09-23T00:24:31;5.13;;;3.57;;
8413;SDS011;4244;48.684;9.028;2022-09-23T00:26:58;6.00;;;3.43;;
8413;SDS011;4244;48.684;9.028;2022-09-23T00:29:24;3.60;;;3.30;;
8413;SDS011;4244;48.684;9.028;2022-09-23T00:31:49;3.57;;;3.27;;
8413;SDS011;4244;48.684;9.028;2022-09-23T00:34:15;4.10;;;3.70;;
8413;SDS011;4244;48.684;9.028;2022-09-23T00:36:41;3.00;;;2.70;;
8413;SDS011;4244;48.684;9.028;2022-09-23T00:39:07;3.03;;;2.73;;
8413;SDS011;4244;48.684;9.028;2022-09-23T00:41:34;3.60;;;3.30;;
8413;SDS011;4244;48.684;9.028;2022-09-23T00:44:00;3.23;;;2.93;;
8413;SDS011;4244;48.684;9.028;2022-09-23T00:46:47;3.07;;;2.73;;
8413;SDS011;4244;48.684;9.028;2022-09-23T00:49:24;4.00;;;3.50;;
8413;SDS011;4244;48.684;9.028;2022-09-23T00:51:54;4.23;;;3.63;;
8413;SDS011;4244;48.684;9.028;2022-09-23T00:54:23;3.30;;;3.00;;
8413;SDS011;4244;48.684;9.028;2022-09-23T00:56:49;4.20;;;3.80;;
8413;SDS011;4244;48.684;9.028;2022-09-23T00:59:15;4.53;;;3.40;;
8413;SDS011;4244;48.684;9.028;2022-09-23T01:01:41;3.70;;;3.40;;
8413;SDS011;4244;48.684;9.028;2022-09-23T01:04:07;4.13;;;3.73;;
8413;SDS011;4244;48.684;9.028;2022-09-23T01:06:33;4.43;;;3.80;;
8413;SDS011;4244;48.684;9.028;2022-09-23T01:08:59;4.60;;;3.60;;
8413;SDS011;4244;48.684;9.028;2022-09-23T01:16:37;5.30;;;4.13;;
8413;SDS011;4244;48.684;9.028;2022-09-23T01:19:23;5.20;;;4.00;;
8413;SDS011;4244;48.684;9.028;2022-09-23T01:22:51;3.60;;;3.30;;
8413;SDS011;4244;48.684;9.028;2022-09-23T01:30:38;3.90;;;3.60;;
8413;SDS011;4244;48.684;9.028;2022-09-23T01:33:22;3.97;;;3.53;;
8413;SDS011;4244;48.684;9.028;2022-09-23T01:35:57;3.40;;;3.03;;
8413;SDS011;4244;48.684;9.028;2022-09-23T01:41:53;3.80;;;3.50;;
8413;SDS011;4244;48.684;9.028;2022-09-23T01:46:37;3.03;;;2.83;;
8413;SDS011;4244;48.684;9.028;2022-09-23T01:49:08;3.47;;;3.17;;
8413;SDS011;4244;48.684;9.028;2022-09-23T01:51:57;3.30;;;3.00;;
8413;SDS011;4244;48.684;9.028;2022-09-23T01:54:29;3.97;;;3.57;;
8413;SDS011;4244;48.684;9.028;2022-09-23T01:57:03;3.43;;;3.13;;
8413;SDS011;4244;48.684;9.028;2022-09-23T01:59:35;4.37;;;3.97;;
8413;SDS011;4244;48.684;9.028;2022-09-23T02:02:23;6.13;;;3.27;;
8413;SDS011;4244;48.684;9.028;2022-09-23T02:07:52;4.27;;;3.20;;
8413;SDS011;4244;48.684;9.028;2022-09-23T02:10:24;3.37;;;3.07;;
8413;SDS011;4244;48.684;9.028;2022-09-23T02:13:07;5.73;;;3.47;;
8413;SDS011;4244;48.684;9.028;2022-09-23T02:15:52;4.40;;;3.13;;
8413;SDS011;4244;48.684;9.028;2022-09-23T02:18:21;3.30;;;3.00;;
8413;SDS011;4244;48.684;9.028;2022-09-23T02:20:54;3.80;;;3.50;;
8413;SDS011;4244;48.684;9.028;2022-09-23T02:23:44;3.43;;;3.13;;
8413;SDS011;4244;48.684;9.028;2022-09-23T02:26:20;4.23;;;3.07;;
8413;SDS011;4244;48.684;9.028;2022-09-23T02:31:58;3.50;;;2.63;;
8413;SDS011;4244;48.684;9.028;2022-09-23T02:45:35;4.80;;;3.03;;
8413;SDS011;4244;48.684;9.028;2022-09-23T02:48:04;3.00;;;2.70;;
8413;SDS011;4244;48.684;9.028;2022-09-23T02:50:32;3.57;;;3.27;;
8413;SDS011;4244;48.684;9.028;2022-09-23T02:52:58;3.70;;;3.40;;
8413;SDS011;4244;48.684;9.028;2022-09-23T02:55:24;4.10;;;3.53;;
8413;SDS011;4244;48.684;9.028;2022-09-23T02:57:54;3.60;;;3.30;;
8413;SDS011;4244;48.684;9.028;2022-09-23T03:00:20;3.50;;;3.20;;
8413;SDS011;4244;48.684;9.028;2022-09-23T03:05:20;4.10;;;3.80;;
8413;SDS011;4244;48.684;9.028;2022-09-23T03:13:39;3.70;;;3.23;;
8413;SDS011;4244;48.684;9.028;2022-09-23T03:19:26;3.50;;;3.20;;
8413;SDS011;4244;48.684;9.028;2022-09-23T03:24:26;5.33;;;3.77;;
8413;SDS011;4244;48.684;9.028;2022-09-23T03:26:55;3.97;;;3.57;;
8413;SDS011;4244;48.684;9.028;2022-09-23T03:29:24;3.97;;;3.57;;
8413;SDS011;4244;48.684;9.028;2022-09-23T03:31:50;4.83;;;3.73;;
8413;SDS011;4244;48.684;9.028;2022-09-23T03:34:20;3.50;;;3.13;;
8413;SDS011;4244;48.684;9.028;2022-09-23T03:36:51;4.33;;;3.77;;
8413;SDS011;4244;48.684;9.028;2022-09-23T03:42:25;5.73;;;3.23;;
8413;SDS011;4244;48.684;9.028;2022-09-23T03:44:54;3.60;;;3.30;;
8413;SDS011;4244;48.684;9.028;2022-09-23T03:47:21;3.83;;;3.47;;
8413;SDS011;4244;48.684;9.028;2022-09-23T03:49:52;5.50;;;3.97;;
8413;SDS011;4244;48.684;9.028;2022-09-23T03:52:19;3.87;;;3.20;;
8413;SDS011;4244;48.684;9.028;2022-09-23T03:54:46;3.30;;;3.07;;
8413;SDS011;4244;48.684;9.028;2022-09-23T03:57:11;4.43;;;4.00;;
8413;SDS011;4244;48.684;9.028;2022-09-23T03:59:38;4.40;;;3.60;;
8413;SDS011;4244;48.684;9.028;2022-09-23T04:02:04;3.97;;;3.57;;
8413;SDS011;4244;48.684;9.028;2022-09-23T04:04:31;3.53;;;3.23;;
8413;SDS011;4244;48.684;9.028;2022-09-23T04:06:58;3.47;;;3.00;;
8413;SDS011;4244;48.684;9.028;2022-09-23T04:09:24;3.47;;;3.17;;
8413;SDS011;4244;48.684;9.028;2022-09-23T04:11:50;3.57;;;3.27;;
8413;SDS011;4244;48.684;9.028;2022-09-23T04:14:17;3.90;;;3.17;;
8413;SDS011;4244;48.684;9.028;2022-09-23T04:16:43;3.40;;;3.03;;
8413;SDS011;4244;48.684;9.028;2022-09-23T04:19:10;3.40;;;3.10;;
8413;SDS011;4244;48.684;9.028;2022-09-23T04:21:36;3.70;;;3.17;;
8413;SDS011;4244;48.684;9.028;2022-09-23T04:24:03;3.33;;;3.00;;
8413;SDS011;4244;48.684;9.028;2022-09-23T04:26:29;3.30;;;3.00;;
8413;SDS011;4244;48.684;9.028;2022-09-23T04:28:55;3.60;;;3.00;;
8413;SDS011;4244;48.684;9.028;2022-09-23T04:31:21;3.43;;;3.13;;
8413;SDS011;4244;48.684;9.028;2022-09-23T04:33:49;3.10;;;2.90;;
8413;SDS011;4244;48.684;9.028;2022-09-23T04:36:18;4.40;;;3.43;;
8413;SDS011;4244;48.684;9.028;2022-09-23T04:38:46;4.47;;;3.10;;
8413;SDS011;4244;48.684;9.028;2022-09-23T04:41:12;3.43;;;3.13;;
8413;SDS011;4244;48.684;9.028;2022-09-23T04:43:38;6.20;;;4.00;;
8413;SDS011;4244;48.684;9.028;2022-09-23T04:46:05;3.80;;;3.40;;
8413;SDS011;4244;48.684;9.028;2022-09-23T04:48:31;4.17;;;3.27;;
8413;SDS011;4244;48.684;9.028;2022-09-23T04:51:01;4.30;;;3.73;;
8413;SDS011;4244;48.684;9.028;2022-09-23T04:53:35;3.33;;;3.03;;
8413;SDS011;4244;48.684;9.028;2022-09-23T04:56:02;3.97;;;3.57;;
8413;SDS011;4244;48.684;9.028;2022-09-23T04:58:29;3.53;;;3.13;;
8413;SDS011;4244;48.684;9.028;2022-09-23T05:00:55;5.23;;;3.70;;
8413;SDS011;4244;48.684;9.028;2022-09-23T05:03:21;4.20;;;3.80;;
8413;SDS011;4244;48.684;9.028;2022-09-23T05:05:48;4.10;;;3.70;;
8413;SDS011;4244;48.684;9.028;2022-09-23T05:08:13;4.00;;;3.50;;
8413;SDS011;4244;48.684;9.028;2022-09-23T05:10:39;6.50;;;3.40;;
8413;SDS011;4244;48.684;9.028;2022-09-23T05:13:06;4.20;;;3.80;;
8413;SDS011;4244;48.684;9.028;2022-09-23T05:15:32;4.60;;;4.20;;
8413;SDS011;4244;48.684;9.028;2022-09-23T05:17:58;4.43;;;3.70;;
8413;SDS011;4244;48.684;9.028;2022-09-23T05:20:23;3.90;;;3.60;;
8413;SDS011;4244;48.684;9.028;2022-09-23T05:22:49;4.57;;;3.93;;
8413;SDS011;4244;48.684;9.028;2022-09-23T05:25:15;4.13;;;3.80;;
8413;SDS011;4244;48.684;9.028;2022-09-23T05:27:40;4.90;;;4.23;;
8413;SDS011;4244;48.684;9.028;2022-09-23T05:30:06;4.67;;;4.27;;
8413;SDS011;4244;48.684;9.028;2022-09-23T05:32:33;4.73;;;4.23;;
8413;SDS011;4244;48.684;9.028;2022-09-23T05:34:58;4.63;;;3.87;;
8413;SDS011;4244;48.684;9.028;2022-09-23T05:37:24;5.30;;;4.90;;
8413;SDS011;4244;48.684;9.028;2022-09-23T05:39:49;4.80;;;4.40;;
8413;SDS011;4244;48.684;9.028;2022-09-23T05:42:15;4.60;;;4.17;;
8413;SDS011;4244;48.684;9.028;2022-09-23T05:44:44;4.57;;;4.17;;
8413;SDS011;4244;48.684;9.028;2022-09-23T05:47:11;4.70;;;3.90;;
8413;SDS011;4244;48.684;9.028;2022-09-23T05:49:36;5.30;;;4.90;;
8413;SDS011;4244;48.684;9.028;2022-09-23T05:52:02;4.70;;;4.20;;
8413;SDS011;4244;48.684;9.028;2022-09-23T05:54:27;4.50;;;4.10;;
8413;SDS011;4244;48.684;9.028;2022-09-23T05:56:53;4.40;;;4.00;;
8413;SDS011;4244;48.684;9.028;2022-09-23T05:59:18;4.50;;;4.10;;
8413;SDS011;4244;48.684;9.028;2022-09-23T06:01:44;4.97;;;4.00;;
8413;SDS011;4244;48.684;9.028;2022-09-23T06:04:10;4.17;;;3.77;;
8413;SDS011;4244;48.684;9.028;2022-09-23T06:06:39;5.27;;;4.73;;
8413;SDS011;4244;48.684;9.028;2022-09-23T06:09:06;4.33;;;3.93;;
8413;SDS011;4244;48.684;9.028;2022-09-23T06:11:34;4.80;;;4.17;;
8413;SDS011;4244;48.684;9.028;2022-09-23T06:14:00;4.80;;;4.33;;
8413;SDS011;4244;48.684;9.028;2022-09-23T06:16:26;5.20;;;4.37;;
8413;SDS011;4244;48.684;9.028;2022-09-23T06:18:53;5.27;;;4.60;;
8413;SDS011;4244;48.684;9.028;2022-09-23T06:21:18;4.30;;;3.90;;
8413;SDS011;4244;48.684;9.028;2022-09-23T06:23:44;4.93;;;4.40;;
8413;SDS011;4244;48.684;9.028;2022-09-23T06:26:11;4.80;;;4.40;;
8413;SDS011;4244;48.684;9.028;2022-09-23T06:28:39;4.80;;;4.40;;
8413;SDS011;4244;48.684;9.028;2022-09-23T06:31:08;5.43;;;4.93;;
8413;SDS011;4244;48.684;9.028;2022-09-23T06:33:35;5.23;;;4.83;;
8413;SDS011;4244;48.684;9.028;2022-09-23T06:36:02;5.23;;;4.73;;
8413;SDS011;4244;48.684;9.028;2022-09-23T06:38:29;4.60;;;4.20;;
8413;SDS011;4244;48.684;9.028;2022-09-23T06:40:56;4.63;;;4.10;;
8413;SDS011;4244;48.684;9.028;2022-09-23T06:43:22;4.80;;;4.40;;
8413;SDS011;4244;48.684;9.028;2022-09-23T06:45:52;4.80;;;4.17;;
8413;SDS011;4244;48.684;9.028;2022-09-23T06:48:18;5.07;;;4.57;;
8413;SDS011;4244;48.684;9.028;2022-09-23T06:50:44;4.77;;;4.30;;
8413;SDS011;4244;48.684;9.028;2022-09-23T06:53:10;5.33;;;4.40;;
8413;SDS011;4244;48.684;9.028;2022-09-23T06:55:36;5.20;;;4.40;;
8413;SDS011;4244;48.684;9.028;2022-09-23T06:58:02;4.20;;;3.80;;
8413;SDS011;4244;48.684;9.028;2022-09-23T07:00:28;4.03;;;3.70;;
8413;SDS011;4244;48.684;9.028;2022-09-23T07:02:53;4.20;;;3.80;;
8413;SDS011;4244;48.684;9.028;2022-09-23T07:05:19;4.63;;;3.70;;
8413;SDS011;4244;48.684;9.028;2022-09-23T07:07:46;3.83;;;3.53;;
8413;SDS011;4244;48.684;9.028;2022-09-23T07:10:11;4.00;;;3.60;;
8413;SDS011;4244;48.684;9.028;2022-09-23T07:12:37;7.37;;;4.00;;
8413;SDS011;4244;48.684;9.028;2022-09-23T07:15:03;4.37;;;3.97;;
8413;SDS011;4244;48.684;9.028;2022-09-23T07:17:29;3.13;;;2.90;;
8413;SDS011;4244;48.684;9.028;2022-09-23T07:19:55;3.87;;;3.40;;
8413;SDS011;4244;48.684;9.028;2022-09-23T07:22:22;3.80;;;3.20;;
8413;SDS011;4244;48.684;9.028;2022-09-23T07:24:49;3.27;;;2.97;;
8413;SDS011;4244;48.684;9.028;2022-09-23T07:27:23;3.33;;;3.10;;
8413;SDS011;4244;48.684;9.028;2022-09-23T07:29:50;3.20;;;2.90;;
8413;SDS011;4244;48.684;9.028;2022-09-23T07:32:16;3.30;;;3.00;;
8413;SDS011;4244;48.684;9.028;2022-09-23T07:34:43;3.20;;;2.90;;
8413;SDS011;4244;48.684;9.028;2022-09-23T07:37:15;3.57;;;3.27;;
8413;SDS011;4244;48.684;9.028;2022-09-23T07:39:42;3.47;;;3.17;;
8413;SDS011;4244;48.684;9.028;2022-09-23T07:42:08;3.27;;;2.97;;
8413;SDS011;4244;48.684;9.028;2022-09-23T07:44:37;3.40;;;2.97;;
8413;SDS011;4244;48.684;9.028;2022-09-23T07:47:03;3.10;;;2.80;;
8413;SDS011;4244;48.684;9.028;2022-09-23T07:49:30;3.70;;;3.40;;
8413;SDS011;4244;48.684;9.028;2022-09-23T07:51:59;2.73;;;2.53;;
8413;SDS011;4244;48.684;9.028;2022-09-23T07:54:25;3.70;;;3.40;;
8413;SDS011;4244;48.684;9.028;2022-09-23T07:56:53;4.53;;;3.03;;
8413;SDS011;4244;48.684;9.028;2022-09-23T07:59:19;3.17;;;2.47;;
8413;SDS011;4244;48.684;9.028;2022-09-23T08:01:46;3.70;;;3.40;;
8413;SDS011;4244;48.684;9.028;2022-09-23T08:04:17;4.27;;;2.67;;
8413;SDS011;4244;48.684;9.028;2022-09-23T08:06:52;3.63;;;3.20;;
8413;SDS011;4244;48.684;9.028;2022-09-23T08:09:20;3.50;;;3.20;;
8413;SDS011;4244;48.684;9.028;2022-09-23T08:11:48;3.30;;;2.87;;
8413;SDS011;4244;48.684;9.028;2022-09-23T08:14:15;2.10;;;1.60;;
8413;SDS011;4244;48.684;9.028;2022-09-23T08:16:42;2.67;;;1.60;;
8413;SDS011;4244;48.684;9.028;2022-09-23T08:19:09;2.00;;;1.80;;
8413;SDS011;4244;48.684;9.028;2022-09-23T08:21:36;3.17;;;2.27;;
8413;SDS011;4244;48.684;9.028;2022-09-23T08:24:03;2.47;;;2.27;;
8413;SDS011;4244;48.684;9.028;2022-09-23T08:26:33;2.73;;;2.27;;
8413;SDS011;4244;48.684;9.028;2022-09-23T08:28:59;2.60;;;2.17;;
8413;SDS011;4244;48.684;9.028;2022-09-23T08:31:25;2.50;;;2.30;;
8413;SDS011;4244;48.684;9.028;2022-09-23T08:33:54;2.40;;;2.20;;
8413;SDS011;4244;48.684;9.028;2022-09-23T08:36:23;3.77;;;2.83;;
8413;SDS011;4244;48.684;9.028;2022-09-23T08:38:49;2.87;;;2.60;;
8413;SDS011;4244;48.684;9.028;2022-09-23T08:49:50;3.20;;;2.90;;
8413;SDS011;4244;48.684;9.028;2022-09-23T08:55:17;5.57;;;3.00;;
8413;SDS011;4244;48.684;9.028;2022-09-23T09:00:46;4.60;;;2.87;;
8413;SDS011;4244;48.684;9.028;2022-09-23T09:03:18;3.20;;;2.40;;
8413;SDS011;4244;48.684;9.028;2022-09-23T09:05:47;3.03;;;2.20;;
8413;SDS011;4244;48.684;9.028;2022-09-23T09:08:13;2.57;;;2.37;;
8413;SDS011;4244;48.684;9.028;2022-09-23T09:10:40;4.00;;;2.73;;
8413;SDS011;4244;48.684;9.028;2022-09-23T09:13:30;3.30;;;2.80;;
8413;SDS011;4244;48.684;9.028;2022-09-23T09:16:13;2.83;;;2.63;;
8413;SDS011;4244;48.684;9.028;2022-09-23T09:18:53;3.40;;;2.87;;
8413;SDS011;4244;48.684;9.028;2022-09-23T09:21:27;4.03;;;2.30;;
8413;SDS011;4244;48.684;9.028;2022-09-23T09:23:58;3.80;;;3.10;;
8413;SDS011;4244;48.684;9.028;2022-09-23T09:26:26;2.30;;;2.10;;
8413;SDS011;4244;48.684;9.028;2022-09-23T09:29:01;2.27;;;2.07;;
8413;SDS011;4244;48.684;9.028;2022-09-23T09:31:46;2.83;;;2.63;;
8413;SDS011;4244;48.684;9.028;2022-09-23T09:39:30;4.07;;;2.50;;
8413;SDS011;4244;48.684;9.028;2022-09-23T09:41:55;2.70;;;2.10;;
8413;SDS011;4244;48.684;9.028;2022-09-23T09:44:36;2.17;;;1.97;;
8413;SDS011;4244;48.684;9.028;2022-09-23T09:52:33;2.83;;;2.50;;
8413;SDS011;4244;48.684;9.028;2022-09-23T09:57:37;3.23;;;2.57;;
8413;SDS011;4244;48.684;9.028;2022-09-23T10:02:54;3.80;;;2.57;;
8413;SDS011;4244;48.684;9.028;2022-09-23T10:08:32;4.20;;;3.00;;
8413;SDS011;4244;48.684;9.028;2022-09-23T10:13:33;2.27;;;2.07;;
8413;SDS011;4244;48.684;9.028;2022-09-23T10:16:00;2.70;;;2.30;;
8413;SDS011;4244;48.684;9.028;2022-09-23T10:18:30;2.97;;;2.10;;
8413;SDS011;4244;48.684;9.028;2022-09-23T10:21:14;3.10;;;2.50;;
8413;SDS011;4244;48.684;9.028;2022-09-23T10:23:52;6.47;;;2.13;;
8413;SDS011;4244;48.684;9.028;2022-09-23T10:26:27;4.27;;;2.47;;
8413;SDS011;4244;48.684;9.028;2022-09-23T10:29:00;3.93;;;2.30;;
8413;SDS011;4244;48.684;9.028;2022-09-23T10:31:28;3.37;;;2.67;;
8413;SDS011;4244;48.684;9.028;2022-09-23T10:34:41;4.63;;;2.37;;
8413;SDS011;4244;48.684;9.028;2022-09-23T10:39:39;4.67;;;3.10;;
8413;SDS011;4244;48.684;9.028;2022-09-23T10:42:26;5.20;;;2.90;;
8413;SDS011;4244;48.684;9.028;2022-09-23T10:50:52;2.43;;;2.23;;
8413;SDS011;4244;48.684;9.028;2022-09-23T10:53:28;3.30;;;2.47;;
8413;SDS011;4244;48.684;9.028;2022-09-23T10:56:35;2.57;;;2.10;;
8413;SDS011;4244;48.684;9.028;2022-09-23T11:01:50;3.60;;;2.50;;
8413;SDS011;4244;48.684;9.028;2022-09-23T11:07:40;2.53;;;2.33;;
8413;SDS011;4244;48.684;9.028;2022-09-23T11:19:31;3.00;;;2.27;;
8413;SDS011;4244;48.684;9.028;2022-09-23T11:21:57;2.50;;;2.30;;
8413;SDS011;4244;48.684;9.028;2022-09-23T11:27:00;2.73;;;2.50;;
8413;SDS011;4244;48.684;9.028;2022-09-23T11:35:17;3.27;;;2.67;;
8413;SDS011;4244;48.684;9.028;2022-09-23T11:37:56;2.40;;;2.20;;
8413;SDS011;4244;48.684;9.028;2022-09-23T11:40:26;2.60;;;2.40;;
8413;SDS011;4244;48.684;9.028;2022-09-23T11:42:57;5.10;;;2.80;;
8413;SDS011;4244;48.684;9.028;2022-09-23T11:45:29;4.13;;;2.50;;
8413;SDS011;4244;48.684;9.028;2022-09-23T11:48:07;2.50;;;2.30;;
8413;SDS011;4244;48.684;9.028;2022-09-23T11:50:55;2.87;;;2.67;;
8413;SDS011;4244;48.684;9.028;2022-09-23T11:56:24;2.60;;;2.40;;
8413;SDS011;4244;48.684;9.028;2022-09-23T12:01:24;2.77;;;2.57;;
8413;SDS011;4244;48.684;9.028;2022-09-23T12:06:28;3.83;;;2.70;;
8413;SDS011;4244;48.684;9.028;2022-09-23T12:09:01;4.30;;;2.53;;
8413;SDS011;4244;48.684;9.028;2022-09-23T12:11:39;2.93;;;2.63;;
8413;SDS011;4244;48.684;9.028;2022-09-23T12:17:09;3.20;;;2.90;;
8413;SDS011;4244;48.684;9.028;2022-09-23T12:20:01;3.03;;;2.60;;
8413;SDS011;4244;48.684;9.028;2022-09-23T12:22:48;3.23;;;2.93;;
8413;SDS011;4244;48.684;9.028;2022-09-23T12:28:21;2.63;;;2.43;;
8413;SDS011;4244;48.684;9.028;2022-09-23T12:30:50;2.90;;;2.60;;
8413;SDS011;4244;48.684;9.028;2022-09-23T12:33:30;2.90;;;2.50;;
8413;SDS011;4244;48.684;9.028;2022-09-23T12:36:04;4.60;;;3.40;;
8413;SDS011;4244;48.684;9.028;2022-09-23T12:38:49;2.83;;;2.63;;
8413;SDS011;4244;48.684;9.028;2022-09-23T12:46:38;4.13;;;3.50;;
8413;SDS011;4244;48.684;9.028;2022-09-23T12:49:06;4.17;;;3.40;;
8413;SDS011;4244;48.684;9.028;2022-09-23T12:54:40;7.63;;;3.57;;
8413;SDS011;4244;48.684;9.028;2022-09-23T13:02:39;5.43;;;3.37;;
8413;SDS011;4244;48.684;9.028;2022-09-23T13:05:32;4.10;;;3.00;;
8413;SDS011;4244;48.684;9.028;2022-09-23T13:08:30;6.00;;;3.70;;
8413;SDS011;4244;48.684;9.028;2022-09-23T13:10:57;6.73;;;3.13;;
8413;SDS011;4244;48.684;9.028;2022-09-23T13:13:26;6.23;;;3.17;;
8413;SDS011;4244;48.684;9.028;2022-09-23T13:16:42;5.10;;;3.17;;
8413;SDS011;4244;48.684;9.028;2022-09-23T13:18:58;3.50;;;3.10;;
8413;SDS011;4244;48.684;9.028;2022-09-23T13:32:03;4.83;;;3.77;;
8413;SDS011;4244;48.684;9.028;2022-09-23T13:34:30;3.50;;;3.20;;
8413;SDS011;4244;48.684;9.028;2022-09-23T13:36:57;3.33;;;2.90;;
8413;SDS011;4244;48.684;9.028;2022-09-23T13:39:45;4.90;;;2.80;;
8413;SDS011;4244;48.684;9.028;2022-09-23T13:42:18;5.73;;;3.40;;
8413;SDS011;4244;48.684;9.028;2022-09-23T13:44:51;3.73;;;2.83;;
8413;SDS011;4244;48.684;9.028;2022-09-23T13:47:21;3.53;;;3.23;;
8413;SDS011;4244;48.684;9.028;2022-09-23T13:49:48;3.50;;;3.20;;
8413;SDS011;4244;48.684;9.028;2022-09-23T13:52:24;3.90;;;3.07;;
8413;SDS011;4244;48.684;9.028;2022-09-23T13:54:51;4.10;;;2.90;;
8413;SDS011;4244;48.684;9.028;2022-09-23T13:57:24;3.53;;;3.23;;
8413;SDS011;4244;48.684;9.028;2022-09-23T13:59:51;4.87;;;2.83;;
8413;SDS011;4244;48.684;9.028;2022-09-23T14:02:17;3.33;;;3.00;;
8413;SDS011;4244;48.684;9.028;2022-09-23T14:04:44;4.93;;;3.10;;
8413;SDS011;4244;48.684;9.028;2022-09-23T14:07:13;4.57;;;3.97;;
8413;SDS011;4244;48.684;9.028;2022-09-23T14:09:41;3.83;;;2.90;;
8413;SDS011;4244;48.684;9.028;2022-09-23T14:12:08;5.13;;;3.20;;
8413;SDS011;4244;48.684;9.028;2022-09-23T14:14:35;4.43;;;3.33;;
8413;SDS011;4244;48.684;9.028;2022-09-23T14:17:02;5.20;;;3.27;;
8413;SDS011;4244;48.684;9.028;2022-09-23T14:19:29;4.00;;;3.17;;
8413;SDS011;4244;48.684;9.028;2022-09-23T14:21:55;4.13;;;3.10;;
8413;SDS011;4244;48.684;9.028;2022-09-23T14:24:22;3.43;;;3.13;;
8413;SDS011;4244;48.684;9.028;2022-09-23T14:27:07;3.50;;;3.20;;
8413;SDS011;4244;48.684;9.028;2022-09-23T14:29:39;4.00;;;3.60;;
8413;SDS011;4244;48.684;9.028;2022-09-23T14:32:16;3.43;;;3.10;;
8413;SDS011;4244;48.684;9.028;2022-09-23T14:45:42;3.60;;;3.30;;
8413;SDS011;4244;48.684;9.028;2022-09-23T14:50:49;3.50;;;3.20;;
8413;SDS011;4244;48.684;9.028;2022-09-23T14:55:51;4.03;;;3.50;;
8413;SDS011;4244;48.684;9.028;2022-09-23T14:58:21;3.30;;;3.00;;
8413;SDS011;4244;48.684;9.028;2022-09-23T15:00:50;3.13;;;2.80;;
8413;SDS011;4244;48.684;9.028;2022-09-23T15:03:25;3.87;;;3.57;;
8413;SDS011;4244;48.684;9.028;2022-09-23T15:05:56;2.93;;;2.73;;
8413;SDS011;4244;48.684;9.028;2022-09-23T15:08:30;4.60;;;3.10;;
8413;SDS011;4244;48.684;9.028;2022-09-23T15:10:59;5.23;;;3.00;;
8413;SDS011;4244;48.684;9.028;2022-09-23T15:13:27;3.17;;;2.87;;
8413;SDS011;4244;48.684;9.028;2022-09-23T15:15:54;3.50;;;3.20;;
8413;SDS011;4244;48.684;9.028;2022-09-23T15:20:50;3.10;;;2.80;;
8413;SDS011;4244;48.684;9.028;2022-09-23T15:26:14;3.90;;;3.27;;
8413;SDS011;4244;48.684;9.028;2022-09-23T15:28:41;3.00;;;2.80;;
8413;SDS011;4244;48.684;9.028;2022-09-23T15:31:11;3.17;;;2.97;;
8413;SDS011;4244;48.684;9.028;2022-09-23T15:33:40;4.93;;;2.80;;
8413;SDS011;4244;48.684;9.028;2022-09-23T15:36:11;5.40;;;2.70;;
8413;SDS011;4244;48.684;9.028;2022-09-23T15:38:42;3.40;;;3.10;;
8413;SDS011;4244;48.684;9.028;2022-09-23T15:41:08;3.70;;;3.40;;
8413;SDS011;4244;48.684;9.028;2022-09-23T15:43:33;4.73;;;3.93;;
8413;SDS011;4244;48.684;9.028;2022-09-23T15:46:04;3.33;;;3.03;;
8413;SDS011;4244;48.684;9.028;2022-09-23T15:48:34;3.90;;;3.33;;
8413;SDS011;4244;48.684;9.028;2022-09-23T15:51:03;4.87;;;3.50;;
8413;SDS011;4244;48.684;9.028;2022-09-23T15:53:30;8.27;;;3.97;;
8413;SDS011;4244;48.684;9.028;2022-09-23T15:55:56;5.70;;;3.30;;
8413;SDS011;4244;48.684;9.028;2022-09-23T15:58:22;5.40;;;3.30;;
8413;SDS011;4244;48.684;9.028;2022-09-23T16:00:52;3.30;;;3.00;;
8413;SDS011;4244;48.684;9.028;2022-09-23T16:03:19;4.97;;;3.13;;
8413;SDS011;4244;48.684;9.028;2022-09-23T16:05:49;4.30;;;3.90;;
8413;SDS011;4244;48.684;9.028;2022-09-23T16:08:15;5.77;;;2.83;;
8413;SDS011;4244;48.684;9.028;2022-09-23T16:10:44;3.70;;;3.30;;
8413;SDS011;4244;48.684;9.028;2022-09-23T16:13:11;3.70;;;3.00;;
8413;SDS011;4244;48.684;9.028;2022-09-23T16:15:38;6.00;;;3.67;;
8413;SDS011;4244;48.684;9.028;2022-09-23T16:18:04;3.37;;;3.00;;
8413;SDS011;4244;48.684;9.028;2022-09-23T16:20:30;3.60;;;2.87;;
8413;SDS011;4244;48.684;9.028;2022-09-23T16:23:01;4.83;;;2.80;;
8413;SDS011;4244;48.684;9.028;2022-09-23T16:25:29;3.73;;;3.27;;
8413;SDS011;4244;48.684;9.028;2022-09-23T16:28:00;3.90;;;3.40;;
8413;SDS011;4244;48.684;9.028;2022-09-23T16:30:27;4.50;;;3.50;;
8413;SDS011;4244;48.684;9.028;2022-09-23T16:32:55;4.20;;;3.37;;
8413;SDS011;4244;48.684;9.028;2022-09-23T16:35:22;3.80;;;2.90;;
8413;SDS011;4244;48.684;9.028;2022-09-23T16:37:49;4.20;;;2.80;;
8413;SDS011;4244;48.684;9.028;2022-09-23T16:40:16;5.27;;;3.40;;
8413;SDS011;4244;48.684;9.028;2022-09-23T16:42:46;3.97;;;3.67;;
8413;SDS011;4244;48.684;9.028;2022-09-23T16:45:16;6.37;;;2.73;;
8413;SDS011;4244;48.684;9.028;2022-09-23T16:47:44;3.73;;;3.00;;
8413;SDS011;4244;48.684;9.028;2022-09-23T16:50:14;4.57;;;3.53;;
8413;SDS011;4244;48.684;9.028;2022-09-23T16:52:41;3.90;;;3.57;;
8413;SDS011;4244;48.684;9.028;2022-09-23T16:55:08;5.40;;;3.87;;
8413;SDS011;4244;48.684;9.028;2022-09-23T16:57:38;3.80;;;3.50;;
8413;SDS011;4244;48.684;9.028;2022-09-23T17:00:06;4.00;;;3.60;;
8413;SDS011;4244;48.684;9.028;2022-09-23T17:03:00;5.40;;;4.07;;
8413;SDS011;4244;48.684;9.028;2022-09-23T17:05:45;5.73;;;3.47;;
8413;SDS011;4244;48.684;9.028;2022-09-23T17:08:11;5.40;;;4.23;;
8413;SDS011;4244;48.684;9.028;2022-09-23T17:10:38;6.40;;;3.93;;
8413;SDS011;4244;48.684;9.028;2022-09-23T17:13:04;4.50;;;3.50;;
8413;SDS011;4244;48.684;9.028;2022-09-23T17:15:33;3.73;;;3.33;;
8413;SDS011;4244;48.684;9.028;2022-09-23T17:18:00;4.10;;;3.80;;
8413;SDS011;4244;48.684;9.028;2022-09-23T17:20:25;4.20;;;3.40;;
8413;SDS011;4244;48.684;9.028;2022-09-23T17:22:51;3.60;;;3.30;;
8413;SDS011;4244;48.684;9.028;2022-09-23T17:25:19;3.50;;;3.20;;
8413;SDS011;4244;48.684;9.028;2022-09-23T17:27:46;4.30;;;3.90;;
8413;SDS011;4244;48.684;9.028;2022-09-23T17:30:12;4.27;;;3.80;;
8413;SDS011;4244;48.684;9.028;2022-09-23T17:32:38;3.80;;;3.30;;
8413;SDS011;4244;48.684;9.028;2022-09-23T17:35:04;3.57;;;3.27;;
8413;SDS011;4244;48.684;9.028;2022-09-23T17:37:30;5.40;;;3.53;;
8413;SDS011;4244;48.684;9.028;2022-09-23T17:39:56;4.17;;;3.77;;
8413;SDS011;4244;48.684;9.028;2022-09-23T17:42:23;4.10;;;3.80;;
8413;SDS011;4244;48.684;9.028;2022-09-23T17:44:48;3.60;;;3.30;;
8413;SDS011;4244;48.684;9.028;2022-09-23T17:47:14;4.70;;;4.17;;
8413;SDS011;4244;48.684;9.028;2022-09-23T17:49:39;6.00;;;4.30;;
8413;SDS011;4244;48.684;9.028;2022-09-23T17:52:06;5.97;;;4.23;;
8413;SDS011;4244;48.684;9.028;2022-09-23T17:54:31;6.10;;;3.77;;
8413;SDS011;4244;48.684;9.028;2022-09-23T17:56:58;4.83;;;4.30;;
8413;SDS011;4244;48.684;9.028;2022-09-23T17:59:23;5.33;;;4.83;;
8413;SDS011;4244;48.684;9.028;2022-09-23T18:01:49;4.40;;;4.00;;
8413;SDS011;4244;48.684;9.028;2022-09-23T18:04:15;5.17;;;4.13;;
8413;SDS011;4244;48.684;9.028;2022-09-23T18:06:40;4.90;;;4.40;;
8413;SDS011;4244;48.684;9.028;2022-09-23T18:09:06;3.53;;;3.20;;
8413;SDS011;4244;48.684;9.028;2022-09-23T18:11:36;4.47;;;4.00;;
8413;SDS011;4244;48.684;9.028;2022-09-23T18:14:04;4.70;;;4.30;;
8413;SDS011;4244;48.684;9.028;2022-09-23T18:16:39;4.20;;;3.90;;
8413;SDS011;4244;48.684;9.028;2022-09-23T18:19:06;4.43;;;3.97;;
8413;SDS011;4244;48.684;9.028;2022-09-23T18:21:36;4.87;;;3.80;;
8413;SDS011;4244;48.684;9.028;2022-09-23T18:24:04;4.63;;;4.13;;
8413;SDS011;4244;48.684;9.028;2022-09-23T18:26:31;5.70;;;4.80;;
8413;SDS011;4244;48.684;9.028;2022-09-23T18:28:57;4.93;;;4.40;;